sensor_id;sensor_type;location;lat;lon;timestamp;P1;durP1;ratioP1;P2;durP2;ratioP2
50858;SDS011;36826;47.514;19.056;2023-07-13T00:01:27;8.90;;;3.13;;
50858;SDS011;36826;47.514;19.056;2023-07-13T00:03:53;8.65;;;2.15;;
50858;SDS011;36826;47.514;19.056;2023-07-13T00:06:21;7.50;;;2.33;;
50858;SDS011;36826;47.514;19.056;2023-07-13T00:08:47;5.55;;;2.58;;
50858;SDS011;36826;47.514;19.056;2023-07-13T00:11:14;8.05;;;2.78;;
50858;SDS011;36826;47.514;19.056;2023-07-13T00:13:41;8.43;;;2.50;;
50858;SDS011;36826;47.514;19.056;2023-07-13T00:16:08;4.72;;;2.42;;
50858;SDS011;36826;47.514;19.056;2023-07-13T00:18:34;5.70;;;1.95;;
50858;SDS011;36826;47.514;19.056;2023-07-13T00:21:00;4.95;;;1.92;;
50858;SDS011;36826;47.514;19.056;2023-07-13T00:23:32;4.75;;;2.17;;
50858;SDS011;36826;47.514;19.056;2023-07-13T00:26:03;7.40;;;2.15;;
50858;SDS011;36826;47.514;19.056;2023-07-13T00:28:30;4.85;;;1.95;;
50858;SDS011;36826;47.514;19.056;2023-07-13T00:30:55;5.90;;;1.92;;
50858;SDS011;36826;47.514;19.056;2023-07-13T00:33:21;5.10;;;1.73;;
50858;SDS011;36826;47.514;19.056;2023-07-13T00:35:48;7.07;;;2.20;;
50858;SDS011;36826;47.514;19.056;2023-07-13T00:38:14;4.70;;;1.38;;
50858;SDS011;36826;47.514;19.056;2023-07-13T00:40:40;5.35;;;1.90;;
50858;SDS011;36826;47.514;19.056;2023-07-13T00:43:16;3.90;;;1.58;;
50858;SDS011;36826;47.514;19.056;2023-07-13T00:48:09;3.80;;;1.50;;
50858;SDS011;36826;47.514;19.056;2023-07-13T00:50:36;4.00;;;1.43;;
50858;SDS011;36826;47.514;19.056;2023-07-13T00:53:03;4.00;;;1.20;;
50858;SDS011;36826;47.514;19.056;2023-07-13T00:55:29;3.90;;;1.30;;
50858;SDS011;36826;47.514;19.056;2023-07-13T00:57:55;4.10;;;1.70;;
50858;SDS011;36826;47.514;19.056;2023-07-13T01:00:21;3.45;;;1.23;;
50858;SDS011;36826;47.514;19.056;2023-07-13T01:02:48;4.83;;;1.60;;
50858;SDS011;36826;47.514;19.056;2023-07-13T01:05:19;4.15;;;1.38;;
50858;SDS011;36826;47.514;19.056;2023-07-13T01:07:47;4.05;;;1.58;;
50858;SDS011;36826;47.514;19.056;2023-07-13T01:10:16;4.18;;;1.20;;
50858;SDS011;36826;47.514;19.056;2023-07-13T01:12:42;3.35;;;1.20;;
50858;SDS011;36826;47.514;19.056;2023-07-13T01:18:07;2.65;;;1.13;;
50858;SDS011;36826;47.514;19.056;2023-07-13T01:20:35;3.72;;;1.60;;
50858;SDS011;36826;47.514;19.056;2023-07-13T01:23:06;2.75;;;1.42;;
50858;SDS011;36826;47.514;19.056;2023-07-13T01:25:34;7.00;;;1.48;;
50858;SDS011;36826;47.514;19.056;2023-07-13T01:28:01;5.28;;;1.55;;
50858;SDS011;36826;47.514;19.056;2023-07-13T01:30:28;3.63;;;1.30;;
50858;SDS011;36826;47.514;19.056;2023-07-13T01:32:54;4.90;;;1.10;;
50858;SDS011;36826;47.514;19.056;2023-07-13T01:35:20;2.80;;;1.27;;
50858;SDS011;36826;47.514;19.056;2023-07-13T01:37:46;5.00;;;1.67;;
50858;SDS011;36826;47.514;19.056;2023-07-13T01:40:12;2.42;;;1.33;;
50858;SDS011;36826;47.514;19.056;2023-07-13T01:42:38;3.97;;;1.52;;
50858;SDS011;36826;47.514;19.056;2023-07-13T01:45:04;3.88;;;1.58;;
50858;SDS011;36826;47.514;19.056;2023-07-13T01:47:30;5.75;;;1.55;;
50858;SDS011;36826;47.514;19.056;2023-07-13T01:49:57;3.75;;;1.40;;
50858;SDS011;36826;47.514;19.056;2023-07-13T01:52:23;5.40;;;1.40;;
50858;SDS011;36826;47.514;19.056;2023-07-13T01:54:49;3.08;;;1.23;;
50858;SDS011;36826;47.514;19.056;2023-07-13T01:57:15;2.60;;;1.60;;
50858;SDS011;36826;47.514;19.056;2023-07-13T01:59:40;4.35;;;1.60;;
50858;SDS011;36826;47.514;19.056;2023-07-13T02:02:06;5.47;;;1.48;;
50858;SDS011;36826;47.514;19.056;2023-07-13T02:04:31;5.95;;;1.58;;
50858;SDS011;36826;47.514;19.056;2023-07-13T02:06:57;3.00;;;1.30;;
50858;SDS011;36826;47.514;19.056;2023-07-13T02:09:22;5.15;;;1.30;;
50858;SDS011;36826;47.514;19.056;2023-07-13T02:11:48;3.85;;;1.40;;
50858;SDS011;36826;47.514;19.056;2023-07-13T02:14:14;4.00;;;1.42;;
50858;SDS011;36826;47.514;19.056;2023-07-13T02:16:40;3.10;;;1.40;;
50858;SDS011;36826;47.514;19.056;2023-07-13T02:19:06;4.82;;;1.33;;
50858;SDS011;36826;47.514;19.056;2023-07-13T02:21:33;4.50;;;1.50;;
50858;SDS011;36826;47.514;19.056;2023-07-13T02:23:58;2.97;;;1.40;;
50858;SDS011;36826;47.514;19.056;2023-07-13T02:26:25;4.03;;;1.50;;
50858;SDS011;36826;47.514;19.056;2023-07-13T02:28:51;3.97;;;1.40;;
50858;SDS011;36826;47.514;19.056;2023-07-13T02:31:17;7.55;;;1.63;;
50858;SDS011;36826;47.514;19.056;2023-07-13T02:33:42;4.20;;;1.60;;
50858;SDS011;36826;47.514;19.056;2023-07-13T02:36:08;3.05;;;1.65;;
50858;SDS011;36826;47.514;19.056;2023-07-13T02:38:34;4.72;;;1.75;;
50858;SDS011;36826;47.514;19.056;2023-07-13T02:41:01;4.57;;;1.50;;
50858;SDS011;36826;47.514;19.056;2023-07-13T02:43:28;3.80;;;1.60;;
50858;SDS011;36826;47.514;19.056;2023-07-13T02:45:54;4.93;;;2.00;;
50858;SDS011;36826;47.514;19.056;2023-07-13T02:48:20;3.95;;;1.67;;
50858;SDS011;36826;47.514;19.056;2023-07-13T02:50:47;5.50;;;1.88;;
50858;SDS011;36826;47.514;19.056;2023-07-13T02:53:13;4.57;;;1.73;;
50858;SDS011;36826;47.514;19.056;2023-07-13T02:55:38;5.05;;;1.83;;
50858;SDS011;36826;47.514;19.056;2023-07-13T02:58:06;5.30;;;1.90;;
50858;SDS011;36826;47.514;19.056;2023-07-13T03:00:32;4.47;;;1.92;;
50858;SDS011;36826;47.514;19.056;2023-07-13T03:02:57;4.50;;;1.70;;
50858;SDS011;36826;47.514;19.056;2023-07-13T03:05:23;3.85;;;1.73;;
50858;SDS011;36826;47.514;19.056;2023-07-13T03:07:49;5.22;;;2.03;;
50858;SDS011;36826;47.514;19.056;2023-07-13T03:10:15;4.97;;;1.88;;
50858;SDS011;36826;47.514;19.056;2023-07-13T03:12:42;6.78;;;1.98;;
50858;SDS011;36826;47.514;19.056;2023-07-13T03:15:08;5.07;;;1.95;;
50858;SDS011;36826;47.514;19.056;2023-07-13T03:17:36;7.03;;;2.10;;
50858;SDS011;36826;47.514;19.056;2023-07-13T03:20:01;5.90;;;2.67;;
50858;SDS011;36826;47.514;19.056;2023-07-13T03:22:27;3.67;;;1.80;;
50858;SDS011;36826;47.514;19.056;2023-07-13T03:24:54;6.07;;;2.03;;
50858;SDS011;36826;47.514;19.056;2023-07-13T03:27:20;5.50;;;2.08;;
50858;SDS011;36826;47.514;19.056;2023-07-13T03:29:48;4.93;;;1.95;;
50858;SDS011;36826;47.514;19.056;2023-07-13T03:32:14;5.22;;;1.88;;
50858;SDS011;36826;47.514;19.056;2023-07-13T03:34:39;4.78;;;1.80;;
50858;SDS011;36826;47.514;19.056;2023-07-13T03:37:05;4.93;;;1.92;;
50858;SDS011;36826;47.514;19.056;2023-07-13T03:39:30;5.95;;;1.83;;
50858;SDS011;36826;47.514;19.056;2023-07-13T03:41:56;4.10;;;1.90;;
50858;SDS011;36826;47.514;19.056;2023-07-13T03:44:21;5.03;;;1.90;;
50858;SDS011;36826;47.514;19.056;2023-07-13T03:46:47;6.95;;;2.08;;
50858;SDS011;36826;47.514;19.056;2023-07-13T03:49:13;7.43;;;1.63;;
50858;SDS011;36826;47.514;19.056;2023-07-13T03:51:38;4.55;;;1.70;;
50858;SDS011;36826;47.514;19.056;2023-07-13T03:54:05;3.92;;;1.70;;
50858;SDS011;36826;47.514;19.056;2023-07-13T03:58:58;6.22;;;1.90;;
50858;SDS011;36826;47.514;19.056;2023-07-13T04:01:24;4.43;;;1.50;;
50858;SDS011;36826;47.514;19.056;2023-07-13T04:03:50;6.05;;;2.13;;
50858;SDS011;36826;47.514;19.056;2023-07-13T04:06:18;4.75;;;1.90;;
50858;SDS011;36826;47.514;19.056;2023-07-13T04:08:54;6.90;;;1.60;;
50858;SDS011;36826;47.514;19.056;2023-07-13T04:11:26;3.28;;;1.58;;
50858;SDS011;36826;47.514;19.056;2023-07-13T04:13:53;3.67;;;1.40;;
50858;SDS011;36826;47.514;19.056;2023-07-13T04:16:19;4.05;;;1.60;;
50858;SDS011;36826;47.514;19.056;2023-07-13T04:18:46;2.63;;;1.40;;
50858;SDS011;36826;47.514;19.056;2023-07-13T04:21:13;4.50;;;1.45;;
50858;SDS011;36826;47.514;19.056;2023-07-13T04:23:41;4.22;;;1.50;;
50858;SDS011;36826;47.514;19.056;2023-07-13T04:26:06;2.80;;;1.40;;
50858;SDS011;36826;47.514;19.056;2023-07-13T04:28:33;3.58;;;1.60;;
50858;SDS011;36826;47.514;19.056;2023-07-13T04:30:59;3.13;;;1.75;;
50858;SDS011;36826;47.514;19.056;2023-07-13T04:33:25;3.85;;;1.45;;
50858;SDS011;36826;47.514;19.056;2023-07-13T04:35:52;4.50;;;1.70;;
50858;SDS011;36826;47.514;19.056;2023-07-13T04:38:21;3.55;;;1.30;;
50858;SDS011;36826;47.514;19.056;2023-07-13T04:40:52;4.30;;;1.17;;
50858;SDS011;36826;47.514;19.056;2023-07-13T04:43:20;2.88;;;1.42;;
50858;SDS011;36826;47.514;19.056;2023-07-13T04:45:45;3.67;;;1.40;;
50858;SDS011;36826;47.514;19.056;2023-07-13T04:48:11;3.03;;;1.30;;
50858;SDS011;36826;47.514;19.056;2023-07-13T04:50:37;4.70;;;1.20;;
50858;SDS011;36826;47.514;19.056;2023-07-13T04:53:02;4.20;;;1.40;;
50858;SDS011;36826;47.514;19.056;2023-07-13T04:55:29;3.78;;;1.60;;
50858;SDS011;36826;47.514;19.056;2023-07-13T04:57:57;5.40;;;1.52;;
50858;SDS011;36826;47.514;19.056;2023-07-13T05:00:26;3.85;;;1.70;;
50858;SDS011;36826;47.514;19.056;2023-07-13T05:02:53;5.13;;;1.75;;
50858;SDS011;36826;47.514;19.056;2023-07-13T05:05:20;4.55;;;1.65;;
50858;SDS011;36826;47.514;19.056;2023-07-13T05:07:45;3.92;;;1.95;;
50858;SDS011;36826;47.514;19.056;2023-07-13T05:10:11;5.05;;;2.17;;
50858;SDS011;36826;47.514;19.056;2023-07-13T05:12:38;4.90;;;1.40;;
50858;SDS011;36826;47.514;19.056;2023-07-13T05:15:03;5.55;;;1.42;;
50858;SDS011;36826;47.514;19.056;2023-07-13T05:17:31;11.05;;;4.38;;
50858;SDS011;36826;47.514;19.056;2023-07-13T05:19:56;9.02;;;2.80;;
50858;SDS011;36826;47.514;19.056;2023-07-13T05:22:22;6.65;;;2.50;;
50858;SDS011;36826;47.514;19.056;2023-07-13T05:24:47;6.30;;;2.45;;
50858;SDS011;36826;47.514;19.056;2023-07-13T05:27:13;7.43;;;3.03;;
50858;SDS011;36826;47.514;19.056;2023-07-13T05:29:39;6.88;;;2.50;;
50858;SDS011;36826;47.514;19.056;2023-07-13T05:32:04;8.60;;;2.42;;
50858;SDS011;36826;47.514;19.056;2023-07-13T05:34:30;7.82;;;3.83;;
50858;SDS011;36826;47.514;19.056;2023-07-13T05:36:57;3.80;;;2.35;;
50858;SDS011;36826;47.514;19.056;2023-07-13T05:39:22;2.83;;;1.42;;
50858;SDS011;36826;47.514;19.056;2023-07-13T05:41:48;2.33;;;1.33;;
50858;SDS011;36826;47.514;19.056;2023-07-13T05:44:14;1.90;;;1.15;;
50858;SDS011;36826;47.514;19.056;2023-07-13T05:46:41;2.90;;;1.10;;
50858;SDS011;36826;47.514;19.056;2023-07-13T05:49:06;3.28;;;1.00;;
50858;SDS011;36826;47.514;19.056;2023-07-13T05:51:32;4.15;;;1.05;;
50858;SDS011;36826;47.514;19.056;2023-07-13T05:53:57;3.92;;;0.90;;
50858;SDS011;36826;47.514;19.056;2023-07-13T05:56:23;3.42;;;0.75;;
50858;SDS011;36826;47.514;19.056;2023-07-13T05:58:50;2.50;;;0.77;;
50858;SDS011;36826;47.514;19.056;2023-07-13T06:01:15;3.22;;;1.00;;
50858;SDS011;36826;47.514;19.056;2023-07-13T06:03:41;2.83;;;1.02;;
50858;SDS011;36826;47.514;19.056;2023-07-13T06:06:08;3.30;;;0.95;;
50858;SDS011;36826;47.514;19.056;2023-07-13T06:08:35;3.08;;;0.95;;
50858;SDS011;36826;47.514;19.056;2023-07-13T06:11:07;2.60;;;1.00;;
50858;SDS011;36826;47.514;19.056;2023-07-13T06:13:38;3.88;;;0.98;;
50858;SDS011;36826;47.514;19.056;2023-07-13T06:16:04;2.53;;;1.00;;
50858;SDS011;36826;47.514;19.056;2023-07-13T06:18:31;4.22;;;1.10;;
50858;SDS011;36826;47.514;19.056;2023-07-13T06:21:01;2.72;;;1.45;;
50858;SDS011;36826;47.514;19.056;2023-07-13T06:23:31;2.90;;;1.77;;
50858;SDS011;36826;47.514;19.056;2023-07-13T06:25:56;2.92;;;1.60;;
50858;SDS011;36826;47.514;19.056;2023-07-13T06:28:22;4.93;;;1.70;;
50858;SDS011;36826;47.514;19.056;2023-07-13T06:30:47;2.70;;;1.27;;
50858;SDS011;36826;47.514;19.056;2023-07-13T06:33:13;3.38;;;1.20;;
50858;SDS011;36826;47.514;19.056;2023-07-13T06:35:39;2.42;;;1.00;;
50858;SDS011;36826;47.514;19.056;2023-07-13T06:38:04;2.63;;;1.00;;
50858;SDS011;36826;47.514;19.056;2023-07-13T06:40:30;2.38;;;0.90;;
50858;SDS011;36826;47.514;19.056;2023-07-13T06:42:56;2.08;;;0.70;;
50858;SDS011;36826;47.514;19.056;2023-07-13T06:45:22;2.20;;;0.90;;
50858;SDS011;36826;47.514;19.056;2023-07-13T06:47:47;3.33;;;0.52;;
50858;SDS011;36826;47.514;19.056;2023-07-13T06:50:14;3.42;;;0.82;;
50858;SDS011;36826;47.514;19.056;2023-07-13T06:52:40;1.92;;;0.50;;
50858;SDS011;36826;47.514;19.056;2023-07-13T06:55:05;3.42;;;0.80;;
50858;SDS011;36826;47.514;19.056;2023-07-13T06:57:31;1.40;;;0.55;;
50858;SDS011;36826;47.514;19.056;2023-07-13T06:59:57;3.00;;;0.70;;
50858;SDS011;36826;47.514;19.056;2023-07-13T07:02:22;1.42;;;0.47;;
50858;SDS011;36826;47.514;19.056;2023-07-13T07:04:48;4.05;;;0.85;;
50858;SDS011;36826;47.514;19.056;2023-07-13T07:07:13;2.22;;;0.98;;
50858;SDS011;36826;47.514;19.056;2023-07-13T07:09:39;1.98;;;0.38;;
50858;SDS011;36826;47.514;19.056;2023-07-13T07:12:04;2.08;;;0.35;;
50858;SDS011;36826;47.514;19.056;2023-07-13T07:14:30;2.20;;;0.70;;
50858;SDS011;36826;47.514;19.056;2023-07-13T07:16:56;3.15;;;0.50;;
50858;SDS011;36826;47.514;19.056;2023-07-13T07:19:23;2.67;;;0.50;;
50858;SDS011;36826;47.514;19.056;2023-07-13T07:21:49;1.23;;;0.47;;
50858;SDS011;36826;47.514;19.056;2023-07-13T07:24:14;1.83;;;0.50;;
50858;SDS011;36826;47.514;19.056;2023-07-13T07:26:41;1.45;;;0.40;;
50858;SDS011;36826;47.514;19.056;2023-07-13T07:29:06;2.17;;;0.60;;
50858;SDS011;36826;47.514;19.056;2023-07-13T07:31:32;2.38;;;0.70;;
50858;SDS011;36826;47.514;19.056;2023-07-13T07:33:57;2.05;;;0.50;;
50858;SDS011;36826;47.514;19.056;2023-07-13T07:36:23;1.92;;;0.57;;
50858;SDS011;36826;47.514;19.056;2023-07-13T07:38:48;2.13;;;0.60;;
50858;SDS011;36826;47.514;19.056;2023-07-13T07:41:14;2.20;;;0.40;;
50858;SDS011;36826;47.514;19.056;2023-07-13T07:43:39;1.30;;;0.50;;
50858;SDS011;36826;47.514;19.056;2023-07-13T07:46:05;1.58;;;0.68;;
50858;SDS011;36826;47.514;19.056;2023-07-13T07:48:31;3.60;;;0.73;;
50858;SDS011;36826;47.514;19.056;2023-07-13T07:50:57;2.55;;;0.57;;
50858;SDS011;36826;47.514;19.056;2023-07-13T07:53:22;1.75;;;0.40;;
50858;SDS011;36826;47.514;19.056;2023-07-13T07:55:48;2.00;;;0.60;;
50858;SDS011;36826;47.514;19.056;2023-07-13T07:58:14;2.40;;;0.63;;
50858;SDS011;36826;47.514;19.056;2023-07-13T08:00:42;2.63;;;0.50;;
50858;SDS011;36826;47.514;19.056;2023-07-13T08:03:08;2.05;;;0.50;;
50858;SDS011;36826;47.514;19.056;2023-07-13T08:05:35;2.17;;;0.57;;
50858;SDS011;36826;47.514;19.056;2023-07-13T08:08:01;2.70;;;0.50;;
50858;SDS011;36826;47.514;19.056;2023-07-13T08:10:27;2.93;;;0.50;;
50858;SDS011;36826;47.514;19.056;2023-07-13T08:12:53;2.23;;;0.50;;
50858;SDS011;36826;47.514;19.056;2023-07-13T08:15:23;2.25;;;0.60;;
50858;SDS011;36826;47.514;19.056;2023-07-13T08:17:49;1.20;;;0.53;;
50858;SDS011;36826;47.514;19.056;2023-07-13T08:20:17;1.50;;;0.70;;
50858;SDS011;36826;47.514;19.056;2023-07-13T08:22:43;1.75;;;0.55;;
50858;SDS011;36826;47.514;19.056;2023-07-13T08:25:08;1.20;;;0.70;;
50858;SDS011;36826;47.514;19.056;2023-07-13T08:27:39;1.52;;;0.60;;
50858;SDS011;36826;47.514;19.056;2023-07-13T08:30:06;2.33;;;0.80;;
50858;SDS011;36826;47.514;19.056;2023-07-13T08:32:56;1.55;;;0.77;;
50858;SDS011;36826;47.514;19.056;2023-07-13T08:35:22;2.13;;;0.63;;
50858;SDS011;36826;47.514;19.056;2023-07-13T08:37:47;1.25;;;0.80;;
50858;SDS011;36826;47.514;19.056;2023-07-13T08:40:12;1.57;;;0.63;;
50858;SDS011;36826;47.514;19.056;2023-07-13T08:42:39;2.08;;;0.60;;
50858;SDS011;36826;47.514;19.056;2023-07-13T08:45:17;2.25;;;0.68;;
50858;SDS011;36826;47.514;19.056;2023-07-13T08:47:57;1.88;;;0.70;;
50858;SDS011;36826;47.514;19.056;2023-07-13T08:50:30;1.45;;;0.73;;
50858;SDS011;36826;47.514;19.056;2023-07-13T08:53:00;3.17;;;0.95;;
50858;SDS011;36826;47.514;19.056;2023-07-13T08:55:33;2.25;;;0.90;;
50858;SDS011;36826;47.514;19.056;2023-07-13T09:00:40;2.72;;;1.15;;
50858;SDS011;36826;47.514;19.056;2023-07-13T09:03:18;2.38;;;1.08;;
50858;SDS011;36826;47.514;19.056;2023-07-13T09:05:49;3.67;;;0.98;;
50858;SDS011;36826;47.514;19.056;2023-07-13T09:11:55;2.70;;;1.05;;
50858;SDS011;36826;47.514;19.056;2023-07-13T09:17:25;1.30;;;0.90;;
50858;SDS011;36826;47.514;19.056;2023-07-13T09:22:56;1.95;;;0.98;;
50858;SDS011;36826;47.514;19.056;2023-07-13T09:25:29;1.27;;;0.80;;
50858;SDS011;36826;47.514;19.056;2023-07-13T09:28:01;2.17;;;1.25;;
50858;SDS011;36826;47.514;19.056;2023-07-13T09:30:38;1.40;;;0.90;;
50858;SDS011;36826;47.514;19.056;2023-07-13T09:33:18;2.10;;;1.00;;
50858;SDS011;36826;47.514;19.056;2023-07-13T09:35:45;1.50;;;0.80;;
50858;SDS011;36826;47.514;19.056;2023-07-13T09:38:17;1.27;;;0.85;;
50858;SDS011;36826;47.514;19.056;2023-07-13T09:40:59;2.63;;;1.00;;
50858;SDS011;36826;47.514;19.056;2023-07-13T09:46:39;2.72;;;1.10;;
50858;SDS011;36826;47.514;19.056;2023-07-13T09:49:09;1.65;;;1.02;;
50858;SDS011;36826;47.514;19.056;2023-07-13T09:51:36;3.35;;;1.05;;
50858;SDS011;36826;47.514;19.056;2023-07-13T09:54:03;2.75;;;1.00;;
50858;SDS011;36826;47.514;19.056;2023-07-13T09:56:29;2.83;;;1.13;;
50858;SDS011;36826;47.514;19.056;2023-07-13T09:58:55;1.85;;;1.10;;
50858;SDS011;36826;47.514;19.056;2023-07-13T10:04:18;1.60;;;0.93;;
50858;SDS011;36826;47.514;19.056;2023-07-13T10:06:45;2.45;;;0.95;;
50858;SDS011;36826;47.514;19.056;2023-07-13T10:09:17;2.97;;;1.20;;
50858;SDS011;36826;47.514;19.056;2023-07-13T10:11:44;1.42;;;0.70;;
50858;SDS011;36826;47.514;19.056;2023-07-13T10:14:17;2.42;;;1.17;;
50858;SDS011;36826;47.514;19.056;2023-07-13T10:16:45;2.38;;;0.98;;
50858;SDS011;36826;47.514;19.056;2023-07-13T10:19:25;2.13;;;1.10;;
50858;SDS011;36826;47.514;19.056;2023-07-13T10:24:44;1.65;;;0.80;;
50858;SDS011;36826;47.514;19.056;2023-07-13T10:27:20;2.67;;;1.00;;
50858;SDS011;36826;47.514;19.056;2023-07-13T10:29:53;1.52;;;0.95;;
50858;SDS011;36826;47.514;19.056;2023-07-13T10:32:26;1.88;;;1.08;;
50858;SDS011;36826;47.514;19.056;2023-07-13T10:37:24;2.05;;;1.00;;
50858;SDS011;36826;47.514;19.056;2023-07-13T10:39:52;3.28;;;1.30;;
50858;SDS011;36826;47.514;19.056;2023-07-13T10:42:37;3.05;;;1.15;;
50858;SDS011;36826;47.514;19.056;2023-07-13T10:45:24;2.05;;;1.08;;
50858;SDS011;36826;47.514;19.056;2023-07-13T10:47:56;3.00;;;0.88;;
50858;SDS011;36826;47.514;19.056;2023-07-13T10:50:23;2.72;;;1.00;;
50858;SDS011;36826;47.514;19.056;2023-07-13T10:52:55;2.50;;;1.02;;
50858;SDS011;36826;47.514;19.056;2023-07-13T10:58:36;2.10;;;1.02;;
50858;SDS011;36826;47.514;19.056;2023-07-13T11:04:28;2.30;;;0.80;;
50858;SDS011;36826;47.514;19.056;2023-07-13T11:07:09;1.70;;;1.00;;
50858;SDS011;36826;47.514;19.056;2023-07-13T11:09:43;3.40;;;1.08;;
50858;SDS011;36826;47.514;19.056;2023-07-13T11:20:31;1.80;;;0.73;;
50858;SDS011;36826;47.514;19.056;2023-07-13T11:25:37;2.40;;;0.85;;
50858;SDS011;36826;47.514;19.056;2023-07-13T11:28:05;2.35;;;0.68;;
50858;SDS011;36826;47.514;19.056;2023-07-13T11:35:35;3.42;;;1.10;;
50858;SDS011;36826;47.514;19.056;2023-07-13T11:38:08;1.40;;;0.80;;
50858;SDS011;36826;47.514;19.056;2023-07-13T11:43:11;5.72;;;2.10;;
50858;SDS011;36826;47.514;19.056;2023-07-13T11:45:39;2.13;;;1.05;;
50858;SDS011;36826;47.514;19.056;2023-07-13T11:48:04;2.17;;;0.90;;
50858;SDS011;36826;47.514;19.056;2023-07-13T11:50:31;1.95;;;0.90;;
50858;SDS011;36826;47.514;19.056;2023-07-13T11:52:58;1.23;;;0.90;;
50858;SDS011;36826;47.514;19.056;2023-07-13T11:55:24;2.25;;;0.75;;
50858;SDS011;36826;47.514;19.056;2023-07-13T12:00:35;3.17;;;1.10;;
50858;SDS011;36826;47.514;19.056;2023-07-13T12:05:30;1.80;;;0.80;;
50858;SDS011;36826;47.514;19.056;2023-07-13T12:07:58;2.30;;;0.90;;
50858;SDS011;36826;47.514;19.056;2023-07-13T12:10:24;1.92;;;0.93;;
50858;SDS011;36826;47.514;19.056;2023-07-13T12:12:58;2.95;;;0.90;;
50858;SDS011;36826;47.514;19.056;2023-07-13T12:18:12;1.20;;;0.90;;
50858;SDS011;36826;47.514;19.056;2023-07-13T12:20:39;2.15;;;0.80;;
50858;SDS011;36826;47.514;19.056;2023-07-13T12:23:05;1.25;;;0.70;;
50858;SDS011;36826;47.514;19.056;2023-07-13T12:25:45;5.10;;;2.00;;
50858;SDS011;36826;47.514;19.056;2023-07-13T12:34:11;3.28;;;1.08;;
50858;SDS011;36826;47.514;19.056;2023-07-13T12:36:40;1.75;;;1.00;;
50858;SDS011;36826;47.514;19.056;2023-07-13T12:39:15;1.83;;;1.00;;
50858;SDS011;36826;47.514;19.056;2023-07-13T12:41:44;1.75;;;1.10;;
50858;SDS011;36826;47.514;19.056;2023-07-13T12:44:21;1.83;;;0.93;;
50858;SDS011;36826;47.514;19.056;2023-07-13T12:46:55;3.30;;;0.90;;
50858;SDS011;36826;47.514;19.056;2023-07-13T12:49:25;2.97;;;0.95;;
50858;SDS011;36826;47.514;19.056;2023-07-13T12:52:01;1.92;;;0.90;;
50858;SDS011;36826;47.514;19.056;2023-07-13T12:54:29;2.50;;;1.00;;
50858;SDS011;36826;47.514;19.056;2023-07-13T12:56:55;2.05;;;1.65;;
50858;SDS011;36826;47.514;19.056;2023-07-13T12:59:24;1.83;;;1.02;;
50858;SDS011;36826;47.514;19.056;2023-07-13T13:01:53;2.42;;;0.90;;
50858;SDS011;36826;47.514;19.056;2023-07-13T13:04:19;1.67;;;0.93;;
50858;SDS011;36826;47.514;19.056;2023-07-13T13:06:46;2.13;;;0.87;;
50858;SDS011;36826;47.514;19.056;2023-07-13T13:09:13;4.80;;;0.93;;
50858;SDS011;36826;47.514;19.056;2023-07-13T13:11:40;2.50;;;1.13;;
50858;SDS011;36826;47.514;19.056;2023-07-13T13:14:06;2.58;;;1.05;;
50858;SDS011;36826;47.514;19.056;2023-07-13T13:16:33;1.52;;;0.90;;
50858;SDS011;36826;47.514;19.056;2023-07-13T13:19:12;2.80;;;1.08;;
50858;SDS011;36826;47.514;19.056;2023-07-13T13:24:15;1.85;;;0.88;;
50858;SDS011;36826;47.514;19.056;2023-07-13T13:26:42;2.00;;;1.20;;
50858;SDS011;36826;47.514;19.056;2023-07-13T13:29:15;3.08;;;0.85;;
50858;SDS011;36826;47.514;19.056;2023-07-13T13:31:42;2.13;;;0.90;;
50858;SDS011;36826;47.514;19.056;2023-07-13T13:34:12;2.38;;;1.00;;
50858;SDS011;36826;47.514;19.056;2023-07-13T13:36:41;2.55;;;0.95;;
50858;SDS011;36826;47.514;19.056;2023-07-13T13:39:43;1.58;;;1.00;;
50858;SDS011;36826;47.514;19.056;2023-07-13T13:42:03;3.97;;;1.17;;
50858;SDS011;36826;47.514;19.056;2023-07-13T13:44:29;2.65;;;1.10;;
50858;SDS011;36826;47.514;19.056;2023-07-13T13:46:55;1.88;;;1.00;;
50858;SDS011;36826;47.514;19.056;2023-07-13T13:49:23;2.17;;;1.02;;
50858;SDS011;36826;47.514;19.056;2023-07-13T13:51:51;1.70;;;1.00;;
50858;SDS011;36826;47.514;19.056;2023-07-13T13:54:18;3.05;;;1.13;;
50858;SDS011;36826;47.514;19.056;2023-07-13T13:56:50;1.50;;;0.93;;
50858;SDS011;36826;47.514;19.056;2023-07-13T13:59:16;3.25;;;1.08;;
50858;SDS011;36826;47.514;19.056;2023-07-13T14:01:43;2.05;;;1.00;;
50858;SDS011;36826;47.514;19.056;2023-07-13T14:04:17;3.00;;;1.20;;
50858;SDS011;36826;47.514;19.056;2023-07-13T14:06:45;1.70;;;1.00;;
50858;SDS011;36826;47.514;19.056;2023-07-13T14:09:13;2.03;;;1.23;;
50858;SDS011;36826;47.514;19.056;2023-07-13T14:11:41;2.00;;;1.20;;
50858;SDS011;36826;47.514;19.056;2023-07-13T14:14:09;2.58;;;1.30;;
50858;SDS011;36826;47.514;19.056;2023-07-13T14:16:41;2.20;;;0.98;;
50858;SDS011;36826;47.514;19.056;2023-07-13T14:19:08;2.17;;;1.10;;
50858;SDS011;36826;47.514;19.056;2023-07-13T14:21:36;2.38;;;1.00;;
50858;SDS011;36826;47.514;19.056;2023-07-13T14:24:02;1.77;;;0.90;;
50858;SDS011;36826;47.514;19.056;2023-07-13T14:26:28;2.95;;;1.13;;
50858;SDS011;36826;47.514;19.056;2023-07-13T14:28:57;2.47;;;0.90;;
50858;SDS011;36826;47.514;19.056;2023-07-13T14:31:24;2.20;;;0.90;;
50858;SDS011;36826;47.514;19.056;2023-07-13T14:33:51;2.50;;;0.95;;
50858;SDS011;36826;47.514;19.056;2023-07-13T14:39:16;1.52;;;0.95;;
50858;SDS011;36826;47.514;19.056;2023-07-13T14:41:44;1.73;;;0.93;;
50858;SDS011;36826;47.514;19.056;2023-07-13T14:44:14;1.92;;;1.20;;
50858;SDS011;36826;47.514;19.056;2023-07-13T14:46:42;1.90;;;0.90;;
50858;SDS011;36826;47.514;19.056;2023-07-13T14:49:12;2.17;;;0.90;;
50858;SDS011;36826;47.514;19.056;2023-07-13T14:51:59;1.35;;;0.90;;
50858;SDS011;36826;47.514;19.056;2023-07-13T14:54:26;2.30;;;0.98;;
50858;SDS011;36826;47.514;19.056;2023-07-13T14:56:52;2.38;;;0.70;;
50858;SDS011;36826;47.514;19.056;2023-07-13T14:59:18;2.63;;;0.93;;
50858;SDS011;36826;47.514;19.056;2023-07-13T15:01:44;3.63;;;1.08;;
50858;SDS011;36826;47.514;19.056;2023-07-13T15:04:11;2.35;;;0.90;;
50858;SDS011;36826;47.514;19.056;2023-07-13T15:06:53;2.20;;;1.00;;
50858;SDS011;36826;47.514;19.056;2023-07-13T15:09:24;2.35;;;1.40;;
50858;SDS011;36826;47.514;19.056;2023-07-13T15:11:51;2.58;;;0.90;;
50858;SDS011;36826;47.514;19.056;2023-07-13T15:14:21;2.25;;;1.10;;
50858;SDS011;36826;47.514;19.056;2023-07-13T15:16:48;2.05;;;1.10;;
50858;SDS011;36826;47.514;19.056;2023-07-13T15:19:18;2.58;;;1.40;;
50858;SDS011;36826;47.514;19.056;2023-07-13T15:21:46;3.13;;;1.00;;
50858;SDS011;36826;47.514;19.056;2023-07-13T15:24:12;2.70;;;1.25;;
50858;SDS011;36826;47.514;19.056;2023-07-13T15:26:38;1.88;;;1.10;;
50858;SDS011;36826;47.514;19.056;2023-07-13T15:29:04;1.50;;;0.95;;
50858;SDS011;36826;47.514;19.056;2023-07-13T15:31:31;2.40;;;1.30;;
50858;SDS011;36826;47.514;19.056;2023-07-13T15:33:58;2.53;;;1.20;;
50858;SDS011;36826;47.514;19.056;2023-07-13T15:36:25;2.03;;;1.20;;
50858;SDS011;36826;47.514;19.056;2023-07-13T15:38:53;2.50;;;1.00;;
50858;SDS011;36826;47.514;19.056;2023-07-13T15:41:21;3.03;;;1.30;;
50858;SDS011;36826;47.514;19.056;2023-07-13T15:43:53;1.50;;;1.10;;
50858;SDS011;36826;47.514;19.056;2023-07-13T15:46:21;2.10;;;1.08;;
50858;SDS011;36826;47.514;19.056;2023-07-13T15:51:26;2.10;;;1.17;;
50858;SDS011;36826;47.514;19.056;2023-07-13T15:53:55;3.40;;;1.13;;
50858;SDS011;36826;47.514;19.056;2023-07-13T15:56:26;3.22;;;1.15;;